Buttzville, New Jersey
Current Conditions -  °F | °C
As of 7:53 AM on Friday 19 Dec 2014 (Local Time) from KSMQ Reporting Station
Overcast Overcast  
Wind Chill: 30°   Ceiling: 3500
Heat Index: 37°   Visibility: 10mi
Dew Point: 23°   Wind: 10mph
Humidity: 57%   Direction: 330°NNW
Pressure: 30.02"   Gusts: NA
Location:  40.83°N, 75.01°W
Report Text: KSMQ 191253Z AUTO 33009KT 10SM OVC035 03/M05 A3002 RMK AO2 SLP168 T00281050
Loading
Personal Weather Stations






























Interactive Weather Map New forecast layout! Learn more

10-Day Weather Forecast

Advertisements
Track Severe Weather on mobile